Time;durP1;ratioP1;P1;durP2;ratioP2;P2;SDS_P1;SDS_P2;PMS_P1;PMS_P2;Temp;Humidity;BMP_temperature;BMP_pressure;BME280_temperature;BME280_humidity;BME280_pressure;Samples;Min_cycle;Max_cycle;Signal;HPM_P1;HPM_P2
2023/04/21 00:01:11;;;;;;;;;3.25;2.75;;;;;22.70;31.02;101167.03;5077221;28;45452;-72
2023/04/21 00:03:37;;;;;;;;;4.00;4.00;;;;;22.65;31.45;101162.22;5076961;28;46613;-76
2023/04/21 00:06:05;;;;;;;;;4.00;3.00;;;;;22.71;31.21;101171.34;5076489;28;45357;-75
2023/04/21 00:08:30;;;;;;;;;3.00;3.00;;;;;22.70;31.50;101170.50;5077197;28;45241;-75
2023/04/21 00:10:56;;;;;;;;;3.00;3.00;;;;;22.61;31.05;101159.09;5076845;28;45430;-75
2023/04/21 00:13:22;;;;;;;;;4.00;4.00;;;;;22.70;31.35;101165.22;5076890;28;46025;-75
2023/04/21 00:15:48;;;;;;;;;4.00;4.00;;;;;22.70;31.27;101161.72;5076724;28;45394;-75
2023/04/21 00:18:13;;;;;;;;;5.00;3.00;;;;;22.66;31.15;101160.41;5076912;28;45221;-75
2023/04/21 00:20:39;;;;;;;;;5.00;5.00;;;;;22.60;31.02;101138.91;5076602;28;45212;-76
2023/04/21 00:23:04;;;;;;;;;3.25;3.25;;;;;22.60;31.06;101136.25;5058577;28;47068;-75
2023/04/21 00:25:30;;;;;;;;;3.25;3.00;;;;;22.69;31.45;101146.81;5076678;28;45372;-76
2023/04/21 00:27:55;;;;;;;;;4.00;4.00;;;;;22.70;31.28;101146.63;5076722;28;45611;-76
2023/04/21 00:30:21;;;;;;;;;4.00;4.00;;;;;22.70;30.90;101146.63;5076579;28;45453;-75
2023/04/21 00:32:46;;;;;;;;;3.00;3.00;;;;;22.70;31.04;101135.19;5076313;28;46383;-75
2023/04/21 00:35:12;;;;;;;;;3.00;3.00;;;;;22.70;31.37;101140.50;5076222;28;45404;-75
2023/04/21 00:37:37;;;;;;;;;3.00;3.00;;;;;22.70;30.99;101132.56;5076403;28;45471;-75
2023/04/21 00:40:04;;;;;;;;;5.00;5.00;;;;;22.67;31.13;101122.25;5076677;28;45310;-75
2023/04/21 00:42:29;;;;;;;;;4.50;3.75;;;;;22.70;31.31;101135.19;5076365;28;46464;-75
2023/04/21 00:44:55;;;;;;;;;4.25;3.00;;;;;22.68;30.99;101123.91;5076250;28;45397;-76
2023/04/21 00:47:22;;;;;;;;;4.25;3.75;;;;;22.60;31.02;101114.19;5076601;28;45316;-75
2023/04/21 00:49:47;;;;;;;;;3.00;3.00;;;;;22.70;30.92;101130.72;5075876;28;45425;-76
2023/04/21 00:52:16;;;;;;;;;5.25;5.25;;;;;22.70;31.13;101127.25;5076301;28;45423;-72
2023/04/21 00:54:41;;;;;;;;;3.50;2.00;;;;;22.70;31.46;101128.06;5076166;28;45427;-76
2023/04/21 00:57:07;;;;;;;;;3.00;3.00;;;;;22.70;30.86;101124.59;5076205;28;45456;-75
2023/04/21 00:59:33;;;;;;;;;3.50;3.00;;;;;22.70;30.97;101130.72;5076278;28;45384;-75
2023/04/21 01:01:58;;;;;;;;;4.25;4.00;;;;;22.61;31.00;101118.50;5076240;28;45318;-76
2023/04/21 01:04:24;;;;;;;;;3.75;3.00;;;;;22.70;31.42;101130.72;5075846;28;45413;-76
2023/04/21 01:06:50;;;;;;;;;4.75;4.75;;;;;22.70;31.00;101120.13;5076071;28;45260;-75
2023/04/21 01:09:16;;;;;;;;;6.00;6.00;;;;;22.65;31.18;101109.19;5076237;28;45212;-75
2023/04/21 01:11:41;;;;;;;;;3.50;3.00;;;;;22.55;30.84;101090.03;5075900;28;46775;-76
2023/04/21 01:14:07;;;;;;;;;4.00;4.00;;;;;22.69;30.90;101114.97;5076190;28;45369;-76
2023/04/21 01:16:33;;;;;;;;;3.00;3.00;;;;;22.54;30.83;101089.22;5076085;28;45344;-76
2023/04/21 01:19:00;;;;;;;;;3.25;2.25;;;;;22.62;31.02;101107.72;5075661;28;45527;-75
2023/04/21 01:21:27;;;;;;;;;3.00;3.00;;;;;22.68;31.16;101110.66;5075788;28;45519;-75
2023/04/21 01:23:53;;;;;;;;;2.25;2.25;;;;;22.63;30.81;101095.28;5075851;28;45450;-75
2023/04/21 01:26:20;;;;;;;;;3.75;3.75;;;;;22.68;31.01;101111.50;5075753;28;45499;-75
2023/04/21 01:28:47;;;;;;;;;3.50;3.50;;;;;22.56;31.43;101087.19;5075929;28;45269;-75
2023/04/21 01:31:14;;;;;;;;;3.00;3.00;;;;;22.54;31.45;101088.38;5075567;28;46663;-75
2023/04/21 01:33:39;;;;;;;;;4.00;4.00;;;;;22.55;30.78;101077.63;5073984;28;45787;-76
2023/04/21 01:36:05;;;;;;;;;2.00;2.00;;;;;22.67;30.86;101096.56;5075880;28;45289;-75
2023/04/21 01:38:30;;;;;;;;;3.00;3.00;;;;;22.59;31.17;101091.31;5075589;28;45354;-75
2023/04/21 01:40:56;;;;;;;;;5.00;4.00;;;;;22.63;31.29;101097.94;5075502;28;45424;-76
2023/04/21 01:43:24;;;;;;;;;3.00;3.00;;;;;22.40;30.92;101051.06;5075711;28;45230;-75
2023/04/21 01:45:50;;;;;;;;;5.00;4.00;;;;;22.61;30.92;101084.84;5075922;28;45373;-75
2023/04/21 01:48:16;;;;;;;;;2.00;2.00;;;;;22.50;31.45;101058.75;5075481;28;45360;-75
2023/04/21 01:50:41;;;;;;;;;3.50;3.50;;;;;22.52;31.46;101068.19;5075414;28;46224;-75
2023/04/21 01:53:06;;;;;;;;;4.25;4.25;;;;;22.65;31.08;101081.84;5075527;28;45347;-76
2023/04/21 01:55:32;;;;;;;;;5.00;3.00;;;;;22.65;31.03;101087.13;5075524;28;45345;-75
2023/04/21 01:57:58;;;;;;;;;3.00;3.00;;;;;22.64;31.49;101081.00;5075620;28;45289;-75
2023/04/21 02:00:24;;;;;;;;;4.00;4.00;;;;;22.52;31.31;101062.88;5075337;28;46441;-75
2023/04/21 02:02:49;;;;;;;;;4.50;3.25;;;;;22.63;31.25;101076.72;5074984;28;45313;-75
2023/04/21 02:05:15;;;;;;;;;5.00;5.00;;;;;22.62;31.17;101070.59;5075278;28;45355;-75
2023/04/21 02:07:40;;;;;;;;;4.25;4.25;;;;;22.63;31.52;101066.94;5076720;28;45353;-75
2023/04/21 02:10:06;;;;;;;;;5.00;3.75;;;;;22.36;31.43;101024.06;5078805;28;45446;-76
2023/04/21 02:12:31;;;;;;;;;2.50;2.25;;;;;22.63;31.31;101069.59;5060823;28;45264;-76
2023/04/21 02:14:57;;;;;;;;;3.67;3.67;;;;;22.57;31.13;101061.50;5078878;28;45307;-75
2023/04/21 02:17:22;;;;;;;;;3.75;3.75;;;;;22.63;31.33;101055.50;5078632;28;45377;-75
2023/04/21 02:19:48;;;;;;;;;4.25;4.25;;;;;22.58;31.26;101048.09;5078502;28;45373;-76
2023/04/21 02:22:13;;;;;;;;;2.67;2.67;;;;;22.63;31.31;101048.38;5078751;28;45365;-75
2023/04/21 02:24:39;;;;;;;;;1.00;1.00;;;;;22.64;30.97;101051.84;5078822;28;45331;-75
2023/04/21 02:27:04;;;;;;;;;3.75;3.25;;;;;22.57;31.53;101045.59;5078583;28;45603;-75
2023/04/21 02:29:30;;;;;;;;;5.00;3.67;;;;;22.54;30.69;101041.47;5078408;28;46316;-75
2023/04/21 02:31:55;;;;;;;;;3.00;3.00;;;;;22.60;31.24;101050.56;5059737;28;45396;-75
2023/04/21 02:34:21;;;;;;;;;3.00;3.00;;;;;22.36;30.70;101009.97;5077434;28;45348;-75
2023/04/21 02:36:46;;;;;;;;;2.00;2.00;;;;;22.61;30.88;101046.91;5078621;28;45448;-76
2023/04/21 02:39:11;;;;;;;;;4.00;3.00;;;;;22.28;30.87;101006.41;5078029;28;47196;-76
2023/04/21 02:41:37;;;;;;;;;2.00;2.00;;;;;22.62;31.47;101053.84;5078453;28;45365;-75
2023/04/21 02:44:03;;;;;;;;;3.75;3.25;;;;;22.46;31.05;101029.13;5078463;28;45411;-75
2023/04/21 02:46:28;;;;;;;;;4.00;4.00;;;;;22.56;30.90;101038.66;5059835;28;45539;-75
2023/04/21 02:48:53;;;;;;;;;3.25;3.25;;;;;22.58;31.21;101039.31;5078300;28;46278;-74
2023/04/21 02:51:19;;;;;;;;;2.75;2.75;;;;;22.59;31.43;101036.47;5078357;28;45432;-74
2023/04/21 02:53:44;;;;;;;;;3.33;3.33;;;;;22.62;31.40;101037.94;5078404;28;45812;-75
2023/04/21 02:56:09;;;;;;;;;2.50;2.50;;;;;22.58;30.77;101024.22;5078211;28;45341;-75
2023/04/21 02:58:36;;;;;;;;;6.00;4.00;;;;;22.61;31.41;101026.50;5078004;28;46365;-75
2023/04/21 03:01:02;;;;;;;;;3.25;3.25;;;;;22.62;31.24;101029.97;5077832;28;45394;-76
2023/04/21 03:03:28;;;;;;;;;3.50;3.50;;;;;22.61;31.35;101017.75;5078043;28;45371;-74
2023/04/21 03:05:59;;;;;;;;;3.25;3.25;;;;;22.57;30.88;101017.25;5078150;28;45359;-73
2023/04/21 03:08:24;;;;;;;;;3.33;3.33;;;;;22.48;31.25;101002.44;5077800;28;46822;-75
2023/04/21 03:10:50;;;;;;;;;4.00;4.00;;;;;22.62;30.87;101014.91;5077750;28;45371;-73
2023/04/21 03:13:16;;;;;;;;;3.00;3.00;;;;;22.59;31.30;101014.41;5078224;28;45352;-73
2023/04/21 03:15:41;;;;;;;;;4.00;3.00;;;;;22.60;31.11;101008.97;5077562;28;45311;-75
2023/04/21 03:18:07;;;;;;;;;3.00;3.00;;;;;22.63;30.65;101015.72;5077402;28;46242;-75
2023/04/21 03:20:32;;;;;;;;;5.00;3.75;;;;;22.62;31.00;101014.91;5076681;28;45345;-75
2023/04/21 03:22:57;;;;;;;;;4.00;4.00;;;;;22.62;31.39;101012.25;5077676;28;45319;-75
2023/04/21 03:25:23;;;;;;;;;4.00;4.00;;;;;22.63;30.69;101019.22;5077916;28;45368;-75
2023/04/21 03:27:48;;;;;;;;;4.00;3.00;;;;;22.54;30.85;101004.34;5077385;28;46298;-75
2023/04/21 03:30:14;;;;;;;;;3.50;3.50;;;;;22.58;30.74;101004.84;5077217;28;45403;-75
2023/04/21 03:32:39;;;;;;;;;4.00;4.00;;;;;22.63;30.89;101024.50;5077723;28;45540;-75
2023/04/21 03:35:05;;;;;;;;;4.00;3.75;;;;;22.57;30.96;101006.66;5077631;28;45447;-75
2023/04/21 03:37:30;;;;;;;;;6.00;4.00;;;;;22.65;31.18;101010.22;5077300;28;46068;-75
2023/04/21 03:39:56;;;;;;;;;4.50;4.50;;;;;22.62;30.81;101008.75;5077492;28;45570;-75
2023/04/21 03:42:21;;;;;;;;;3.00;3.00;;;;;22.60;31.12;100990.41;5077592;28;45389;-75
2023/04/21 03:44:46;;;;;;;;;3.00;3.00;;;;;22.65;31.25;100999.63;5077128;28;45385;-75
2023/04/21 03:47:11;;;;;;;;;3.75;3.75;;;;;22.66;30.78;101001.28;5077327;28;47114;-75
2023/04/21 03:49:37;;;;;;;;;5.25;5.00;;;;;22.55;30.96;100982.16;5077181;28;45346;-75
2023/04/21 03:52:02;;;;;;;;;5.00;3.00;;;;;22.66;30.71;100998.63;5077455;28;45398;-75
2023/04/21 03:54:28;;;;;;;;;4.00;4.00;;;;;22.59;30.71;100985.25;5077223;28;45542;-75
2023/04/21 03:56:53;;;;;;;;;4.75;3.75;;;;;22.55;31.31;100974.19;5077061;28;45521;-75
2023/04/21 03:59:18;;;;;;;;;4.50;4.50;;;;;22.57;30.70;100972.19;5058551;28;45483;-75
2023/04/21 04:01:43;;;;;;;;;3.33;3.33;;;;;22.62;30.80;100980.41;5077282;28;45372;-75
2023/04/21 04:04:09;;;;;;;;;3.75;3.75;;;;;22.63;31.33;100976.78;5076909;28;47623;-75
2023/04/21 04:06:34;;;;;;;;;3.25;3.25;;;;;22.57;30.73;100966.06;5077155;28;45391;-75
2023/04/21 04:09:03;;;;;;;;;3.33;3.33;;;;;22.62;30.75;100976.94;5076962;28;45504;-76
2023/04/21 04:11:29;;;;;;;;;3.00;3.00;;;;;22.62;31.33;100975.13;5077098;28;45416;-76
2023/04/21 04:13:54;;;;;;;;;3.00;3.00;;;;;22.62;30.85;100974.28;5076682;28;45312;-75
2023/04/21 04:16:19;;;;;;;;;3.00;3.00;;;;;22.35;30.86;100928.81;5076573;28;51559;-75
2023/04/21 04:18:45;;;;;;;;;3.50;3.50;;;;;22.59;31.24;100964.03;5076820;28;45419;-75
2023/04/21 04:21:10;;;;;;;;;4.00;4.00;;;;;22.60;31.08;100961.22;5076847;28;45371;-75
2023/04/21 04:23:35;;;;;;;;;3.00;3.00;;;;;22.58;31.29;100957.94;5076968;28;45306;-75
2023/04/21 04:26:04;;;;;;;;;5.50;3.75;;;;;22.51;31.15;100944.56;5076623;28;46660;-75
2023/04/21 04:28:30;;;;;;;;;5.50;4.50;;;;;22.54;31.56;100953.16;5056239;28;45210;-75
2023/04/21 04:30:55;;;;;;;;;4.50;4.50;;;;;22.45;31.11;100940.00;5055934;28;45329;-75
2023/04/21 04:33:21;;;;;;;;;4.00;4.00;;;;;22.59;30.85;100964.03;5072715;28;45312;-75
2023/04/21 04:35:46;;;;;;;;;4.00;4.00;;;;;22.38;30.96;100931.94;5076494;28;46054;-75
2023/04/21 04:38:13;;;;;;;;;4.00;4.00;;;;;22.47;30.70;100939.81;5076153;28;45287;-75
2023/04/21 04:40:39;;;;;;;;;2.75;2.75;;;;;22.58;31.24;100955.28;5076545;28;45377;-75
2023/04/21 04:43:04;;;;;;;;;3.75;3.75;;;;;22.59;31.18;100951.59;5076162;28;45312;-75
2023/04/21 04:45:31;;;;;;;;;3.25;3.25;;;;;22.60;30.72;100949.78;5076292;28;46310;-75
2023/04/21 04:47:57;;;;;;;;;2.75;2.75;;;;;22.52;30.79;100938.25;5076528;28;45416;-75
2023/04/21 04:50:23;;;;;;;;;5.00;5.00;;;;;22.50;30.84;100934.97;5076006;28;45368;-75
2023/04/21 04:52:48;;;;;;;;;3.00;3.00;;;;;22.59;30.80;100946.31;5076416;28;45442;-75
2023/04/21 04:55:14;;;;;;;;;4.75;3.00;;;;;22.59;31.05;100945.47;5076225;28;46182;-76
2023/04/21 04:57:40;;;;;;;;;4.00;3.25;;;;;22.61;30.78;100943.50;5075811;28;45338;-75
2023/04/21 05:00:10;;;;;;;;;3.50;3.50;;;;;22.49;31.22;100928.00;5076347;28;45352;-75
2023/04/21 05:02:35;;;;;;;;;5.25;5.25;;;;;22.61;31.26;100951.44;5076400;28;45430;-76
2023/04/21 05:05:01;;;;;;;;;3.00;3.00;;;;;22.60;31.24;100950.63;5075795;28;47355;-75
2023/04/21 05:07:26;;;;;;;;;4.00;4.00;;;;;22.53;31.15;100952.34;5076349;28;45273;-75
2023/04/21 05:09:53;;;;;;;;;4.00;3.00;;;;;22.54;31.13;100943.38;5075964;28;45819;-76
2023/04/21 05:12:18;;;;;;;;;3.75;3.75;;;;;22.61;30.66;100956.75;5075743;28;45900;-75
2023/04/21 05:14:44;;;;;;;;;4.25;4.25;;;;;22.46;31.24;100935.50;5075897;28;46289;-75
2023/04/21 05:17:09;;;;;;;;;4.00;4.00;;;;;22.45;31.06;100932.03;5075908;28;45380;-75
2023/04/21 05:19:36;;;;;;;;;4.00;4.00;;;;;22.46;30.75;100930.19;5076039;28;45781;-75
2023/04/21 05:22:01;;;;;;;;;4.50;3.75;;;;;22.56;31.29;100951.16;5076011;28;45330;-75
2023/04/21 05:24:27;;;;;;;;;4.00;3.75;;;;;22.62;30.81;100953.91;5075684;28;45405;-75
2023/04/21 05:26:52;;;;;;;;;5.50;4.50;;;;;22.48;31.30;100936.97;5075506;28;45374;-75
2023/04/21 05:29:18;;;;;;;;;4.00;4.00;;;;;22.56;30.76;100949.31;5076088;28;45325;-75
2023/04/21 05:31:43;;;;;;;;;3.50;3.50;;;;;22.49;30.69;100937.78;5057653;28;46071;-75
2023/04/21 05:34:08;;;;;;;;;4.67;3.00;;;;;22.60;30.68;100961.22;5075574;28;46050;-75
2023/04/21 05:36:34;;;;;;;;;4.00;3.25;;;;;22.46;30.89;100938.97;5075701;28;45238;-75
2023/04/21 05:38:59;;;;;;;;;4.00;3.50;;;;;22.58;31.21;100955.28;5075625;28;45286;-75
2023/04/21 05:41:24;;;;;;;;;4.50;4.00;;;;;22.52;31.32;100938.25;5075455;28;45741;-75
2023/04/21 05:43:50;;;;;;;;;4.00;4.00;;;;;22.49;31.06;100938.63;5078591;28;46455;-75
2023/04/21 05:46:15;;;;;;;;;3.25;3.25;;;;;22.59;30.75;100948.97;5061088;28;45360;-75
2023/04/21 05:48:40;;;;;;;;;4.00;4.00;;;;;22.57;31.40;100953.63;5079418;28;45412;-75
2023/04/21 05:51:10;;;;;;;;;3.00;3.00;;;;;22.59;30.61;100962.22;5079310;28;45367;-75
2023/04/21 05:53:37;;;;;;;;;6.25;5.25;;;;;22.43;31.29;100934.03;5079083;28;45388;-75
2023/04/21 05:56:02;;;;;;;;;3.00;3.00;;;;;22.58;30.91;100963.25;5078305;28;45331;-75
2023/04/21 05:58:28;;;;;;;;;4.75;3.50;;;;;22.59;31.22;100964.88;5079073;28;45398;-75
2023/04/21 06:00:53;;;;;;;;;4.75;4.75;;;;;22.57;30.74;100952.78;5079172;28;45411;-76
2023/04/21 06:03:18;;;;;;;;;4.75;4.75;;;;;22.60;31.21;100955.91;5078873;28;47491;-75
2023/04/21 06:05:44;;;;;;;;;5.00;4.00;;;;;22.48;30.95;100933.50;5078999;28;45498;-75
2023/04/21 06:08:09;;;;;;;;;4.25;3.75;;;;;22.56;30.71;100948.50;5079031;28;45289;-76
2023/04/21 06:10:34;;;;;;;;;3.75;3.75;;;;;22.52;30.97;100938.25;5078643;28;45292;-75
2023/04/21 06:13:00;;;;;;;;;3.00;3.00;;;;;22.59;30.77;100941.00;5078781;28;45296;-76
2023/04/21 06:15:25;;;;;;;;;4.00;4.00;;;;;22.57;30.87;100948.31;5078695;28;45372;-75
2023/04/21 06:17:54;;;;;;;;;3.00;3.00;;;;;22.45;30.68;100917.97;5078961;28;45245;-75
2023/04/21 06:20:20;;;;;;;;;4.50;4.00;;;;;22.59;31.07;100937.53;5078816;28;45297;-75
2023/04/21 06:22:45;;;;;;;;;6.25;3.75;;;;;22.55;31.20;100941.56;5078469;28;46250;-75
2023/04/21 06:25:10;;;;;;;;;4.75;3.25;;;;;22.58;31.08;100946.50;5078339;28;45335;-75
2023/04/21 06:27:36;;;;;;;;;3.25;3.25;;;;;22.57;30.81;100961.56;5078673;28;45398;-75
2023/04/21 06:30:01;;;;;;;;;3.00;3.00;;;;;22.49;31.09;100935.97;5078733;28;45489;-75
2023/04/21 06:32:26;;;;;;;;;2.50;2.00;;;;;22.56;31.33;100943.22;5078386;28;45906;-75
2023/04/21 06:34:52;;;;;;;;;4.00;3.50;;;;;22.60;30.90;100945.31;5078335;28;45354;-75
2023/04/21 06:37:17;;;;;;;;;4.00;3.00;;;;;22.52;31.28;100929.47;5078482;27;45367;-75
2023/04/21 06:39:42;;;;;;;;;3.00;3.00;;;;;22.55;31.14;100949.50;5078161;28;45316;-75
2023/04/21 06:42:08;;;;;;;;;4.00;4.00;;;;;22.46;31.23;100925.72;5078362;28;46159;-75
2023/04/21 06:44:33;;;;;;;;;4.00;4.00;;;;;22.44;30.91;100921.59;5078423;28;48134;-75
2023/04/21 06:46:58;;;;;;;;;3.25;3.25;;;;;22.48;30.78;100926.34;5078552;28;45373;-75
2023/04/21 06:49:24;;;;;;;;;5.75;4.00;;;;;22.53;30.64;100928.50;5078310;28;45351;-75
2023/04/21 06:51:49;;;;;;;;;3.50;3.50;;;;;22.61;31.31;100949.59;5078145;28;45612;-75
2023/04/21 06:54:15;;;;;;;;;4.25;3.00;;;;;22.27;31.32;100893.44;5077579;28;45459;-75
2023/04/21 06:56:41;;;;;;;;;3.00;3.00;;;;;22.51;30.67;100931.31;5078201;28;45420;-75
2023/04/21 06:59:07;;;;;;;;;3.00;3.00;;;;;22.17;30.75;100877.78;5078241;28;45829;-75
2023/04/21 07:01:32;;;;;;;;;3.50;3.50;;;;;22.62;31.12;100931.84;5077740;28;46923;-75
2023/04/21 07:03:58;;;;;;;;;3.00;3.00;;;;;22.62;31.20;100938.00;5077837;28;52309;-75
2023/04/21 07:06:23;;;;;;;;;3.67;3.67;;;;;22.17;30.72;100871.69;5077870;28;45258;-75
2023/04/21 07:08:48;;;;;;;;;4.75;4.75;;;;;22.58;30.89;100936.72;5077902;28;45333;-76
2023/04/21 07:11:14;;;;;;;;;1.50;1.50;;;;;22.58;30.82;100941.19;5059798;28;46037;-76
2023/04/21 07:13:39;;;;;;;;;2.75;2.00;;;;;22.56;30.66;100933.41;5077898;28;45392;-75
2023/04/21 07:16:05;;;;;;;;;3.50;3.50;;;;;22.62;30.88;100939.81;5078140;28;45650;-75
2023/04/21 07:18:31;;;;;;;;;4.00;4.00;;;;;22.61;30.74;100932.88;5077919;28;45486;-75
2023/04/21 07:20:56;;;;;;;;;4.50;3.50;;;;;22.61;31.02;100938.19;5077170;28;47358;-75
2023/04/21 07:23:22;;;;;;;;;3.50;3.50;;;;;22.59;30.83;100929.56;5077737;28;45444;-75
2023/04/21 07:25:47;;;;;;;;;2.75;1.25;;;;;22.60;31.33;100933.88;5078046;28;45453;-75
2023/04/21 07:28:14;;;;;;;;;3.25;3.25;;;;;22.50;30.76;100912.94;5077552;28;45482;-75
2023/04/21 07:30:40;;;;;;;;;5.25;4.00;;;;;22.36;30.87;100893.34;5077506;28;47310;-75
2023/04/21 07:33:05;;;;;;;;;4.00;3.00;;;;;22.55;31.08;100923.00;5077250;28;45311;-75
2023/04/21 07:35:31;;;;;;;;;5.00;3.25;;;;;22.48;30.91;100914.94;5077172;28;45245;-75
2023/04/21 07:37:56;;;;;;;;;5.00;4.00;;;;;22.58;30.81;100923.47;5077265;28;45364;-75
2023/04/21 07:40:21;;;;;;;;;4.00;4.00;;;;;22.58;31.36;100922.63;5077447;28;46031;-75
2023/04/21 07:42:47;;;;;;;;;1.50;1.50;;;;;22.37;30.78;100892.34;5077465;28;45358;-74
2023/04/21 07:45:12;;;;;;;;;3.00;3.00;;;;;22.54;31.35;100913.38;5077536;28;45282;-75
2023/04/21 07:47:37;;;;;;;;;4.00;4.00;;;;;22.58;31.35;100920.81;5077529;28;45232;-75
2023/04/21 07:50:03;;;;;;;;;3.25;3.25;;;;;22.58;30.90;100925.28;5076935;28;45482;-75
2023/04/21 07:52:29;;;;;;;;;3.50;3.50;;;;;22.44;31.16;100903.88;5077272;28;45265;-75
2023/04/21 07:54:54;;;;;;;;;4.50;4.00;;;;;22.51;31.40;100915.41;5077310;28;45181;-75
2023/04/21 07:57:20;;;;;;;;;4.25;4.25;;;;;22.58;31.04;100922.63;5077334;28;45639;-75
2023/04/21 07:59:45;;;;;;;;;3.50;3.50;;;;;22.54;30.99;100911.56;5077029;28;45380;-75
2023/04/21 08:02:10;;;;;;;;;4.75;4.75;;;;;22.27;30.86;100866.94;5077041;28;46640;-75
2023/04/21 08:04:36;;;;;;;;;4.00;2.50;;;;;22.57;30.78;100908.53;5076327;28;45344;-75
2023/04/21 08:07:01;;;;;;;;;5.75;4.00;;;;;22.58;30.89;100909.38;5076441;28;54614;-75
2023/04/21 08:09:27;;;;;;;;;5.75;5.75;;;;;22.58;31.04;100918.16;5076931;28;46132;-75
2023/04/21 08:11:53;;;;;;;;;5.00;4.50;;;;;22.58;30.98;100915.50;5076943;28;45280;-75
2023/04/21 08:14:19;;;;;;;;;4.50;3.75;;;;;22.52;31.31;100901.16;5077103;28;45479;-75
2023/04/21 08:16:44;;;;;;;;;6.00;5.00;;;;;22.59;30.73;100905.69;5076877;28;45539;-75
2023/04/21 08:19:10;;;;;;;;;4.00;4.00;;;;;22.60;31.26;100917.97;5076337;28;46645;-76
2023/04/21 08:21:35;;;;;;;;;4.75;4.75;;;;;22.60;30.96;100905.53;5076862;28;45415;-76
2023/04/21 08:24:01;;;;;;;;;4.25;4.25;;;;;22.61;30.75;100909.03;5076922;28;45401;-75
2023/04/21 08:26:28;;;;;;;;;4.00;3.75;;;;;22.61;31.01;100909.03;5076691;28;45378;-75
2023/04/21 08:28:55;;;;;;;;;2.25;2.25;;;;;22.62;30.86;100905.34;5076515;28;46505;-75
2023/04/21 08:31:21;;;;;;;;;5.25;5.25;;;;;22.31;30.85;100858.63;5076568;28;45396;-75
2023/04/21 08:33:46;;;;;;;;;5.00;5.00;;;;;22.62;31.23;100903.53;5076219;28;45502;-75
2023/04/21 08:36:11;;;;;;;;;6.25;4.75;;;;;22.64;31.29;100911.28;5076675;28;45530;-75
2023/04/21 08:38:37;;;;;;;;;5.00;5.00;;;;;22.54;31.35;100893.00;5076553;28;46517;-75
2023/04/21 08:41:04;;;;;;;;;3.75;3.75;;;;;22.64;30.85;100905.97;5076734;28;45465;-75
2023/04/21 08:43:29;;;;;;;;;5.50;4.00;;;;;22.62;31.25;100903.53;5076552;28;45391;-75
2023/04/21 08:45:55;;;;;;;;;5.25;4.25;;;;;22.54;31.23;100887.69;5076412;28;45396;-75
2023/04/21 08:48:24;;;;;;;;;6.75;6.00;;;;;22.65;30.86;100898.84;5075961;28;45300;-75
2023/04/21 08:50:51;;;;;;;;;3.75;3.75;;;;;22.60;31.18;100886.97;5076388;28;45304;-75
2023/04/21 08:53:16;;;;;;;;;3.00;3.00;;;;;22.63;31.02;100896.38;5076472;28;45285;-75
2023/04/21 08:55:43;;;;;;;;;3.00;3.00;;;;;22.62;31.12;100892.91;5076292;28;45324;-75
2023/04/21 08:58:08;;;;;;;;;4.25;4.25;;;;;22.63;30.95;100893.75;5076055;28;47416;-76
2023/04/21 09:00:34;;;;;;;;;4.00;4.00;;;;;22.52;31.30;100885.25;5076236;28;45316;-75
2023/04/21 09:03:01;;;;;;;;;4.75;4.00;;;;;22.62;30.83;100900.88;5076013;28;45549;-75
2023/04/21 09:05:29;;;;;;;;;4.50;4.50;;;;;22.63;30.99;100901.69;5076148;28;45341;-75
2023/04/21 09:08:11;;;;;;;;;4.67;4.00;;;;;22.63;30.85;100893.75;5076014;28;46040;-75
2023/04/21 09:10:45;;;;;;;;;4.00;4.00;;;;;22.51;31.13;100874.78;5075956;28;45404;-75
2023/04/21 09:13:10;;;;;;;;;3.75;3.75;;;;;22.58;31.05;100889.00;5076171;28;45230;-75
2023/04/21 09:15:44;;;;;;;;;3.75;3.75;;;;;22.63;30.92;100893.75;5076168;28;45304;-75
2023/04/21 09:18:24;;;;;;;;;4.25;3.25;;;;;22.62;31.47;100892.09;5075506;28;46980;-75
2023/04/21 09:21:11;;;;;;;;;5.00;5.00;;;;;22.63;31.25;100888.44;5075883;28;45433;-75
2023/04/21 09:23:42;;;;;;;;;4.25;4.25;;;;;22.62;31.26;100884.94;5075363;28;45344;-75
2023/04/21 09:26:08;;;;;;;;;4.00;4.00;;;;;22.59;31.34;100882.66;5075713;28;45447;-75
2023/04/21 09:28:33;;;;;;;;;3.75;3.00;;;;;22.65;31.08;100893.53;5075729;28;47314;-75
2023/04/21 09:30:59;;;;;;;;;4.25;3.50;;;;;22.57;31.08;100873.25;5075777;28;45443;-75
2023/04/21 09:33:24;;;;;;;;;3.75;3.75;;;;;22.34;31.14;100837.88;5075540;28;45271;-75
2023/04/21 09:35:51;;;;;;;;;4.00;4.00;;;;;22.28;31.47;100830.63;5075842;28;45431;-76
2023/04/21 09:38:21;;;;;;;;;5.75;4.75;;;;;22.65;31.15;100877.63;5075302;28;46451;-75
2023/04/21 09:40:55;;;;;;;;;5.00;5.00;;;;;22.55;31.39;100862.84;5075650;28;45348;-75
2023/04/21 09:43:21;;;;;;;;;3.50;3.50;;;;;22.59;31.37;100871.22;5075991;28;45423;-75
2023/04/21 09:45:48;;;;;;;;;5.00;5.00;;;;;22.56;30.87;100859.16;5075433;28;45336;-74
2023/04/21 09:48:16;;;;;;;;;2.50;2.00;;;;;22.66;30.84;100879.28;5075206;28;46236;-74
2023/04/21 09:50:42;;;;;;;;;4.75;3.50;;;;;22.52;31.38;100856.06;5075456;28;45444;-75
2023/04/21 09:53:14;;;;;;;;;4.00;4.00;;;;;22.58;30.95;100865.13;5074299;28;45325;-75
2023/04/21 09:55:41;;;;;;;;;2.50;1.50;;;;;22.65;31.37;100867.84;5075625;28;45344;-75
2023/04/21 09:58:08;;;;;;;;;4.00;4.00;;;;;22.66;31.44;100868.69;5075236;28;46237;-75
2023/04/21 10:00:38;;;;;;;;;3.00;3.00;;;;;22.60;31.38;100860.44;5075122;28;45409;-75
2023/04/21 10:03:09;;;;;;;;;5.00;3.75;;;;;22.53;31.01;100843.66;5075470;28;45683;-75
2023/04/21 10:05:35;;;;;;;;;4.25;3.25;;;;;22.62;31.00;100860.25;5075511;28;45324;-75
2023/04/21 10:08:00;;;;;;;;;5.00;5.00;;;;;22.66;31.38;100855.41;5075401;28;45331;-75
2023/04/21 10:10:28;;;;;;;;;5.00;4.00;;;;;22.50;30.94;100846.66;5075151;28;45365;-75
2023/04/21 10:12:54;;;;;;;;;4.00;4.00;;;;;22.47;31.18;100834.59;5075544;28;45308;-75
2023/04/21 10:15:40;;;;;;;;;6.25;3.75;;;;;22.55;30.86;100852.22;5075249;28;45423;-75
2023/04/21 10:18:16;;;;;;;;;5.25;4.75;;;;;22.65;31.10;100867.03;5075630;28;46061;-75
2023/04/21 10:21:02;;;;;;;;;4.25;4.00;;;;;22.65;30.97;100867.03;5075162;28;45380;-75
2023/04/21 10:23:43;;;;;;;;;3.00;3.00;;;;;22.63;30.89;100854.78;5075098;28;45377;-75
2023/04/21 10:26:12;;;;;;;;;3.25;3.25;;;;;22.63;31.67;100859.25;5075018;28;45356;-75
2023/04/21 10:28:42;;;;;;;;;3.50;3.50;;;;;22.63;30.75;100861.91;5076050;28;46748;-75
2023/04/21 10:31:21;;;;;;;;;4.00;4.00;;;;;22.51;30.67;100837.69;5078232;28;45328;-75
2023/04/21 10:34:05;;;;;;;;;4.00;4.00;;;;;22.63;31.20;100864.56;5078381;28;45646;-75
2023/04/21 10:36:33;;;;;;;;;4.75;3.00;;;;;22.63;30.81;100859.25;5078348;28;45509;-75
2023/04/21 10:39:02;;;;;;;;;4.00;3.67;;;;;22.65;31.36;100861.72;5077811;28;47277;-75
2023/04/21 10:41:32;;;;;;;;;4.00;4.00;;;;;22.59;31.18;100850.84;5078409;28;45270;-75
2023/04/21 10:44:11;;;;;;;;;3.75;3.25;;;;;22.65;30.69;100853.75;5078166;28;45307;-75
2023/04/21 10:46:38;;;;;;;;;4.25;4.25;;;;;22.61;30.81;100853.34;5060216;28;45501;-75
2023/04/21 10:49:23;;;;;;;;;3.25;3.25;;;;;22.64;30.72;100858.25;5078116;28;46833;-75
2023/04/21 10:52:04;;;;;;;;;4.25;4.25;;;;;22.64;31.05;100852.94;5078369;28;45345;-75
2023/04/21 10:54:35;;;;;;;;;4.50;3.75;;;;;22.63;30.96;100854.78;5078297;28;45324;-75
2023/04/21 10:57:04;;;;;;;;;4.50;3.00;;;;;22.61;30.68;100851.47;5078110;28;45266;-75
2023/04/21 10:59:30;;;;;;;;;4.25;4.00;;;;;22.45;30.97;100819.88;5077571;28;46360;-75
2023/04/21 11:01:56;;;;;;;;;6.00;4.00;;;;;22.60;31.21;100849.03;5059803;28;45443;-74
2023/04/21 11:04:21;;;;;;;;;5.00;3.75;;;;;22.57;31.30;100841.44;5078270;28;45493;-75
2023/04/21 11:07:22;;;;;;;;;2.75;2.75;;;;;22.66;30.76;100847.47;5078086;28;45380;-75
2023/04/21 11:09:55;;;;;;;;;3.75;3.75;;;;;22.54;31.00;100826.72;5077832;28;46185;-76
2023/04/21 11:12:20;;;;;;;;;3.50;3.50;;;;;22.57;30.97;100833.47;5059614;28;45461;-75
2023/04/21 11:14:49;;;;;;;;;5.00;4.50;;;;;22.66;31.16;100852.78;5077496;28;45434;-75
2023/04/21 11:17:16;;;;;;;;;4.00;2.00;;;;;22.60;31.32;100841.91;5078038;28;45394;-75
2023/04/21 11:19:49;;;;;;;;;4.25;3.75;;;;;22.65;30.57;100846.63;5077587;28;47146;-75
2023/04/21 11:22:20;;;;;;;;;2.50;2.25;;;;;22.63;30.58;100835.41;5077591;28;45416;-75